sensor_id;sensor_type;location;lat;lon;timestamp;pressure;altitude;pressure_sealevel;temperature;humidity
72024;BME280;59889;50.700;5.440;2023-04-01T00:00:46;97917.23;;;21.38;35.46
72024;BME280;59889;50.700;5.440;2023-04-01T00:03:11;97920.47;;;21.38;35.13
72024;BME280;59889;50.700;5.440;2023-04-01T00:05:36;97917.68;;;21.35;35.20
72024;BME280;59889;50.700;5.440;2023-04-01T00:08:01;97914.74;;;21.47;35.35
72024;BME280;59889;50.700;5.440;2023-04-01T00:10:26;97915.91;;;21.56;35.24
72024;BME280;59889;50.700;5.440;2023-04-01T00:12:51;97914.15;;;21.43;35.42
72024;BME280;59889;50.700;5.440;2023-04-01T00:15:16;97915.28;;;21.78;35.28
72024;BME280;59889;50.700;5.440;2023-04-01T00:17:41;97916.73;;;21.28;35.29
72024;BME280;59889;50.700;5.440;2023-04-01T00:20:08;97919.79;;;21.44;35.39
72024;BME280;59889;50.700;5.440;2023-04-01T00:22:31;97918.38;;;21.51;35.30
72024;BME280;59889;50.700;5.440;2023-04-01T00:24:56;97920.65;;;21.62;35.46
72024;BME280;59889;50.700;5.440;2023-04-01T00:27:21;97916.45;;;21.43;35.41
72024;BME280;59889;50.700;5.440;2023-04-01T00:29:47;97923.80;;;21.16;35.45
72024;BME280;59889;50.700;5.440;2023-04-01T00:32:11;97921.89;;;21.54;35.26
72024;BME280;59889;50.700;5.440;2023-04-01T00:34:36;97926.07;;;21.77;35.27
72024;BME280;59889;50.700;5.440;2023-04-01T00:37:01;97925.51;;;21.72;35.33
72024;BME280;59889;50.700;5.440;2023-04-01T00:39:28;97924.19;;;21.77;34.98
72024;BME280;59889;50.700;5.440;2023-04-01T00:41:51;97922.11;;;21.17;35.42
72024;BME280;59889;50.700;5.440;2023-04-01T00:44:19;97919.18;;;21.26;35.30
72024;BME280;59889;50.700;5.440;2023-04-01T00:46:42;97920.94;;;21.49;35.29
72024;BME280;59889;50.700;5.440;2023-04-01T00:49:07;97921.40;;;21.54;35.24
72024;BME280;59889;50.700;5.440;2023-04-01T00:51:32;97924.13;;;21.34;35.18
72024;BME280;59889;50.700;5.440;2023-04-01T00:53:59;97926.54;;;21.47;35.33
72024;BME280;59889;50.700;5.440;2023-04-01T00:56:24;97925.42;;;21.35;35.14
72024;BME280;59889;50.700;5.440;2023-04-01T00:58:50;97927.79;;;21.59;35.17
72024;BME280;59889;50.700;5.440;2023-04-01T01:01:12;97923.84;;;21.28;35.25
72024;BME280;59889;50.700;5.440;2023-04-01T01:03:37;97924.52;;;21.60;35.15
72024;BME280;59889;50.700;5.440;2023-04-01T01:06:09;97917.86;;;21.66;35.08
72024;BME280;59889;50.700;5.440;2023-04-01T01:08:34;97919.24;;;21.30;35.22
72024;BME280;59889;50.700;5.440;2023-04-01T01:10:52;97918.03;;;21.36;35.13
72024;BME280;59889;50.700;5.440;2023-04-01T01:13:21;97917.36;;;21.68;35.03
72024;BME280;59889;50.700;5.440;2023-04-01T01:15:46;97915.26;;;21.59;35.14
72024;BME280;59889;50.700;5.440;2023-04-01T01:18:12;97911.85;;;21.42;35.05
72024;BME280;59889;50.700;5.440;2023-04-01T01:20:47;97913.64;;;21.81;34.82
72024;BME280;59889;50.700;5.440;2023-04-01T01:23:07;97912.21;;;21.65;35.06
72024;BME280;59889;50.700;5.440;2023-04-01T01:25:32;97913.67;;;21.80;35.16
72024;BME280;59889;50.700;5.440;2023-04-01T01:27:56;97910.38;;;21.49;35.27
72024;BME280;59889;50.700;5.440;2023-04-01T01:30:21;97905.73;;;21.71;34.99
72024;BME280;59889;50.700;5.440;2023-04-01T01:32:47;97907.68;;;21.71;34.97
72024;BME280;59889;50.700;5.440;2023-04-01T01:35:14;97906.56;;;21.46;34.99
72024;BME280;59889;50.700;5.440;2023-04-01T01:37:29;97906.27;;;21.33;35.14
72024;BME280;59889;50.700;5.440;2023-04-01T01:39:55;97903.09;;;21.40;35.07
72024;BME280;59889;50.700;5.440;2023-04-01T01:42:19;97904.58;;;21.73;34.98
72024;BME280;59889;50.700;5.440;2023-04-01T01:44:46;97908.48;;;21.82;35.13
72024;BME280;59889;50.700;5.440;2023-04-01T01:47:09;97908.53;;;21.85;35.11
72024;BME280;59889;50.700;5.440;2023-04-01T01:49:34;97915.77;;;21.60;35.14
72024;BME280;59889;50.700;5.440;2023-04-01T01:51:58;97909.90;;;21.61;35.07
72024;BME280;59889;50.700;5.440;2023-04-01T01:54:23;97913.54;;;21.44;35.00
72024;BME280;59889;50.700;5.440;2023-04-01T01:56:51;97913.24;;;22.27;34.57
72024;BME280;59889;50.700;5.440;2023-04-01T01:59:15;97910.15;;;21.71;34.94
72024;BME280;59889;50.700;5.440;2023-04-01T02:01:41;97915.06;;;21.83;35.12
72024;BME280;59889;50.700;5.440;2023-04-01T02:04:04;97915.57;;;21.55;34.89
72024;BME280;59889;50.700;5.440;2023-04-01T02:06:32;97916.94;;;21.43;35.01
72024;BME280;59889;50.700;5.440;2023-04-01T02:08:56;97916.63;;;21.70;34.98
72024;BME280;59889;50.700;5.440;2023-04-01T02:11:22;97915.66;;;21.77;34.88
72024;BME280;59889;50.700;5.440;2023-04-01T02:13:49;97923.01;;;21.32;35.16
72024;BME280;59889;50.700;5.440;2023-04-01T02:16:12;97928.74;;;21.74;34.93
72024;BME280;59889;50.700;5.440;2023-04-01T02:18:35;97927.81;;;21.90;34.71
72024;BME280;59889;50.700;5.440;2023-04-01T02:20:59;97924.01;;;21.85;34.75
72024;BME280;59889;50.700;5.440;2023-04-01T02:23:24;97928.61;;;21.73;34.92
72024;BME280;59889;50.700;5.440;2023-04-01T02:25:49;97934.33;;;21.35;35.11
72024;BME280;59889;50.700;5.440;2023-04-01T02:28:14;97931.96;;;21.41;35.02
72024;BME280;59889;50.700;5.440;2023-04-01T02:30:40;97933.73;;;21.59;35.09
72024;BME280;59889;50.700;5.440;2023-04-01T02:33:05;97931.71;;;21.79;35.14
72024;BME280;59889;50.700;5.440;2023-04-01T02:35:29;97934.57;;;21.98;34.88
72024;BME280;59889;50.700;5.440;2023-04-01T02:37:55;97935.39;;;22.06;34.48
72024;BME280;59889;50.700;5.440;2023-04-01T02:40:20;97933.20;;;22.01;34.85
72024;BME280;59889;50.700;5.440;2023-04-01T02:42:44;97933.79;;;22.07;34.78
72024;BME280;59889;50.700;5.440;2023-04-01T02:45:11;97938.54;;;21.78;35.16
72024;BME280;59889;50.700;5.440;2023-04-01T02:47:34;97936.16;;;21.52;35.18
72024;BME280;59889;50.700;5.440;2023-04-01T02:49:59;97936.28;;;21.86;35.03
72024;BME280;59889;50.700;5.440;2023-04-01T02:52:24;97935.72;;;21.48;35.25
72024;BME280;59889;50.700;5.440;2023-04-01T02:54:50;97928.42;;;21.23;35.54
72024;BME280;59889;50.700;5.440;2023-04-01T02:57:15;97933.99;;;21.58;35.42
72024;BME280;59889;50.700;5.440;2023-04-01T02:59:40;97936.44;;;21.42;35.35
72024;BME280;59889;50.700;5.440;2023-04-01T03:02:05;97938.59;;;21.66;35.32
72024;BME280;59889;50.700;5.440;2023-04-01T03:04:30;97939.09;;;21.37;35.43
72024;BME280;59889;50.700;5.440;2023-04-01T03:06:55;97943.59;;;21.38;35.43
72024;BME280;59889;50.700;5.440;2023-04-01T03:09:20;97946.38;;;21.35;35.44
72024;BME280;59889;50.700;5.440;2023-04-01T03:11:45;97947.70;;;21.31;35.47
72024;BME280;59889;50.700;5.440;2023-04-01T03:14:10;97952.66;;;21.44;35.34
72024;BME280;59889;50.700;5.440;2023-04-01T03:16:35;97951.27;;;21.20;35.62
72024;BME280;59889;50.700;5.440;2023-04-01T03:19:00;97957.15;;;21.36;35.46
72024;BME280;59889;50.700;5.440;2023-04-01T03:21:25;97960.21;;;21.24;35.57
72024;BME280;59889;50.700;5.440;2023-04-01T03:23:50;97962.46;;;21.20;35.61
72024;BME280;59889;50.700;5.440;2023-04-01T03:26:15;97970.71;;;21.03;35.52
72024;BME280;59889;50.700;5.440;2023-04-01T03:28:40;97969.92;;;21.36;35.43
72024;BME280;59889;50.700;5.440;2023-04-01T03:31:05;97967.82;;;21.25;35.56
72024;BME280;59889;50.700;5.440;2023-04-01T03:33:30;97971.21;;;21.35;35.43
72024;BME280;59889;50.700;5.440;2023-04-01T03:35:55;97975.93;;;21.39;35.37
72024;BME280;59889;50.700;5.440;2023-04-01T03:38:20;97977.65;;;21.67;35.32
72024;BME280;59889;50.700;5.440;2023-04-01T03:40:45;97975.19;;;21.12;35.42
72024;BME280;59889;50.700;5.440;2023-04-01T03:43:10;97977.92;;;21.23;35.28
72024;BME280;59889;50.700;5.440;2023-04-01T03:45:35;97978.86;;;21.29;35.48
72024;BME280;59889;50.700;5.440;2023-04-01T03:48:00;97980.66;;;21.45;35.28
72024;BME280;59889;50.700;5.440;2023-04-01T03:50:25;97980.52;;;21.95;34.98
72024;BME280;59889;50.700;5.440;2023-04-01T03:52:51;97979.68;;;21.36;35.38
72024;BME280;59889;50.700;5.440;2023-04-01T03:55:16;97979.39;;;21.05;35.46
72024;BME280;59889;50.700;5.440;2023-04-01T03:57:41;97985.88;;;21.34;35.41
72024;BME280;59889;50.700;5.440;2023-04-01T04:00:07;97988.14;;;21.21;35.28
72024;BME280;59889;50.700;5.440;2023-04-01T04:02:31;97991.39;;;21.56;35.11
72024;BME280;59889;50.700;5.440;2023-04-01T04:04:56;97991.71;;;21.34;35.38
72024;BME280;59889;50.700;5.440;2023-04-01T04:07:21;97995.51;;;21.39;35.31
72024;BME280;59889;50.700;5.440;2023-04-01T04:09:46;98001.87;;;21.19;35.25
72024;BME280;59889;50.700;5.440;2023-04-01T04:12:11;98003.42;;;21.68;35.24
72024;BME280;59889;50.700;5.440;2023-04-01T04:14:36;98004.56;;;21.58;35.07
72024;BME280;59889;50.700;5.440;2023-04-01T04:17:01;98003.91;;;21.58;35.07
72024;BME280;59889;50.700;5.440;2023-04-01T04:19:26;98004.73;;;21.50;35.19
72024;BME280;59889;50.700;5.440;2023-04-01T04:21:51;98010.70;;;21.38;35.33
72024;BME280;59889;50.700;5.440;2023-04-01T04:24:16;98015.67;;;21.37;35.34
72024;BME280;59889;50.700;5.440;2023-04-01T04:26:41;98018.35;;;21.22;35.24
72024;BME280;59889;50.700;5.440;2023-04-01T04:29:06;98018.97;;;21.69;35.24
72024;BME280;59889;50.700;5.440;2023-04-01T04:31:31;98021.48;;;21.36;35.37
72024;BME280;59889;50.700;5.440;2023-04-01T04:33:58;98025.95;;;21.68;35.27
72024;BME280;59889;50.700;5.440;2023-04-01T04:36:22;98027.62;;;21.31;35.43
72024;BME280;59889;50.700;5.440;2023-04-01T04:38:47;98028.93;;;21.43;35.28
72024;BME280;59889;50.700;5.440;2023-04-01T04:41:12;98031.48;;;21.49;35.18
72024;BME280;59889;50.700;5.440;2023-04-01T04:43:36;98033.37;;;21.46;35.23
72024;BME280;59889;50.700;5.440;2023-04-01T04:46:04;98038.51;;;21.72;35.20
72024;BME280;59889;50.700;5.440;2023-04-01T04:48:26;98041.13;;;21.86;35.02
72024;BME280;59889;50.700;5.440;2023-04-01T04:50:52;98049.34;;;21.50;35.16
72024;BME280;59889;50.700;5.440;2023-04-01T04:53:18;98045.95;;;21.54;35.12
72024;BME280;59889;50.700;5.440;2023-04-01T04:55:44;98049.78;;;21.37;35.01
72024;BME280;59889;50.700;5.440;2023-04-01T04:58:07;98056.41;;;21.42;35.25
72024;BME280;59889;50.700;5.440;2023-04-01T05:00:32;98068.72;;;21.60;34.74
72024;BME280;59889;50.700;5.440;2023-04-01T05:02:57;98071.54;;;21.40;34.77
72024;BME280;59889;50.700;5.440;2023-04-01T05:05:22;98073.62;;;21.29;34.56
72024;BME280;59889;50.700;5.440;2023-04-01T05:07:47;98073.65;;;21.31;34.16
72024;BME280;59889;50.700;5.440;2023-04-01T05:10:12;98076.18;;;21.19;34.00
72024;BME280;59889;50.700;5.440;2023-04-01T05:12:37;98072.20;;;21.33;33.91
72024;BME280;59889;50.700;5.440;2023-04-01T05:15:03;98082.25;;;21.28;33.80
72024;BME280;59889;50.700;5.440;2023-04-01T05:17:27;98074.45;;;20.99;33.96
72024;BME280;59889;50.700;5.440;2023-04-01T05:19:52;98077.74;;;20.88;33.67
72024;BME280;59889;50.700;5.440;2023-04-01T05:22:17;98077.13;;;21.07;33.57
72024;BME280;59889;50.700;5.440;2023-04-01T05:24:42;98083.13;;;21.04;33.53
72024;BME280;59889;50.700;5.440;2023-04-01T05:27:07;98087.13;;;21.10;33.38
72024;BME280;59889;50.700;5.440;2023-04-01T05:29:33;98084.09;;;21.26;33.41
72024;BME280;59889;50.700;5.440;2023-04-01T05:31:58;98080.59;;;20.87;33.26
72024;BME280;59889;50.700;5.440;2023-04-01T05:34:23;98087.90;;;20.89;33.57
72024;BME280;59889;50.700;5.440;2023-04-01T05:36:48;98089.16;;;20.86;33.67
72024;BME280;59889;50.700;5.440;2023-04-01T05:39:13;98092.70;;;21.22;33.66
72024;BME280;59889;50.700;5.440;2023-04-01T05:41:38;98096.83;;;21.00;33.76
72024;BME280;59889;50.700;5.440;2023-04-01T05:44:04;98096.21;;;20.96;33.91
72024;BME280;59889;50.700;5.440;2023-04-01T05:46:28;98100.54;;;21.02;33.89
72024;BME280;59889;50.700;5.440;2023-04-01T05:48:53;98103.42;;;21.00;33.96
72024;BME280;59889;50.700;5.440;2023-04-01T05:51:18;98105.94;;;20.85;34.18
72024;BME280;59889;50.700;5.440;2023-04-01T05:53:44;98109.26;;;20.91;34.13
72024;BME280;59889;50.700;5.440;2023-04-01T05:56:08;98108.46;;;20.84;34.24
72024;BME280;59889;50.700;5.440;2023-04-01T05:58:33;98113.10;;;20.82;34.34
72024;BME280;59889;50.700;5.440;2023-04-01T06:01:01;98112.89;;;20.80;34.36
72024;BME280;59889;50.700;5.440;2023-04-01T06:03:23;98119.34;;;20.94;34.22
72024;BME280;59889;50.700;5.440;2023-04-01T06:05:48;98118.01;;;20.92;34.28
72024;BME280;59889;50.700;5.440;2023-04-01T06:08:16;98118.49;;;20.60;34.41
72024;BME280;59889;50.700;5.440;2023-04-01T06:10:48;98124.67;;;20.97;34.30
72024;BME280;59889;50.700;5.440;2023-04-01T06:13:07;98131.06;;;20.64;34.40
72024;BME280;59889;50.700;5.440;2023-04-01T06:15:35;98130.87;;;21.24;34.25
72024;BME280;59889;50.700;5.440;2023-04-01T06:18:10;98133.02;;;20.49;34.58
72024;BME280;59889;50.700;5.440;2023-04-01T06:20:23;98134.97;;;20.52;34.60
72024;BME280;59889;50.700;5.440;2023-04-01T06:25:24;98144.80;;;20.68;34.71
72024;BME280;59889;50.700;5.440;2023-04-01T06:27:45;98140.75;;;20.85;34.47
72024;BME280;59889;50.700;5.440;2023-04-01T06:30:10;98144.07;;;20.90;34.47
72024;BME280;59889;50.700;5.440;2023-04-01T06:32:40;98147.56;;;20.67;34.42
72024;BME280;59889;50.700;5.440;2023-04-01T06:35:03;98152.60;;;20.73;34.63
72024;BME280;59889;50.700;5.440;2023-04-01T06:37:26;98154.22;;;20.91;34.48
72024;BME280;59889;50.700;5.440;2023-04-01T06:39:50;98154.78;;;20.87;34.49
72024;BME280;59889;50.700;5.440;2023-04-01T06:42:14;98157.45;;;20.53;34.62
72024;BME280;59889;50.700;5.440;2023-04-01T06:44:36;98159.86;;;20.61;34.55
72024;BME280;59889;50.700;5.440;2023-04-01T06:46:58;98159.55;;;20.87;34.53
72024;BME280;59889;50.700;5.440;2023-04-01T06:49:31;98166.18;;;20.76;34.66
72024;BME280;59889;50.700;5.440;2023-04-01T06:51:51;98168.25;;;21.00;34.69
72024;BME280;59889;50.700;5.440;2023-04-01T06:54:12;98168.07;;;20.76;34.73
72024;BME280;59889;50.700;5.440;2023-04-01T06:56:36;98169.45;;;20.98;34.47
72024;BME280;59889;50.700;5.440;2023-04-01T06:59:12;98175.45;;;20.84;34.65
72024;BME280;59889;50.700;5.440;2023-04-01T07:01:32;98177.26;;;20.54;35.03
72024;BME280;59889;50.700;5.440;2023-04-01T07:03:55;98177.49;;;20.85;34.69
72024;BME280;59889;50.700;5.440;2023-04-01T07:06:20;98182.53;;;20.75;34.85
72024;BME280;59889;50.700;5.440;2023-04-01T07:08:42;98181.70;;;20.75;34.83
72024;BME280;59889;50.700;5.440;2023-04-01T07:11:06;98187.83;;;20.60;35.06
72024;BME280;59889;50.700;5.440;2023-04-01T07:13:34;98184.45;;;20.75;34.90
72024;BME280;59889;50.700;5.440;2023-04-01T07:16:01;98190.44;;;20.87;34.73
72024;BME280;59889;50.700;5.440;2023-04-01T07:18:25;98193.60;;;20.77;34.83
72024;BME280;59889;50.700;5.440;2023-04-01T07:20:46;98195.22;;;20.61;34.71
72024;BME280;59889;50.700;5.440;2023-04-01T07:23:16;98206.10;;;20.70;34.92
72024;BME280;59889;50.700;5.440;2023-04-01T07:25:38;98205.20;;;20.79;34.82
72024;BME280;59889;50.700;5.440;2023-04-01T07:28:03;98212.06;;;21.06;34.81
72024;BME280;59889;50.700;5.440;2023-04-01T07:30:30;98212.66;;;21.02;34.87
72024;BME280;59889;50.700;5.440;2023-04-01T07:32:55;98214.47;;;20.69;35.03
72024;BME280;59889;50.700;5.440;2023-04-01T07:35:22;98217.96;;;20.69;35.06
72024;BME280;59889;50.700;5.440;2023-04-01T07:37:51;98217.86;;;20.70;35.04
72024;BME280;59889;50.700;5.440;2023-04-01T07:40:18;98220.33;;;20.74;34.98
72024;BME280;59889;50.700;5.440;2023-04-01T07:42:39;98228.27;;;20.78;34.91
72024;BME280;59889;50.700;5.440;2023-04-01T07:45:03;98226.27;;;20.59;35.15
72024;BME280;59889;50.700;5.440;2023-04-01T07:47:32;98230.46;;;20.78;34.96
72024;BME280;59889;50.700;5.440;2023-04-01T07:49:54;98233.02;;;20.45;35.00
72024;BME280;59889;50.700;5.440;2023-04-01T07:52:15;98235.91;;;20.62;35.10
72024;BME280;59889;50.700;5.440;2023-04-01T07:54:40;98240.41;;;20.78;34.98
72024;BME280;59889;50.700;5.440;2023-04-01T07:57:05;98241.80;;;20.60;35.25
72024;BME280;59889;50.700;5.440;2023-04-01T07:59:33;98245.25;;;20.69;35.12
72024;BME280;59889;50.700;5.440;2023-04-01T08:01:57;98247.33;;;20.70;35.15
72024;BME280;59889;50.700;5.440;2023-04-01T08:04:25;98250.71;;;20.65;35.21
72024;BME280;59889;50.700;5.440;2023-04-01T08:06:46;98252.67;;;20.75;35.08
72024;BME280;59889;50.700;5.440;2023-04-01T08:09:13;98258.68;;;20.83;34.98
72024;BME280;59889;50.700;5.440;2023-04-01T08:11:42;98264.08;;;20.73;35.31
72024;BME280;59889;50.700;5.440;2023-04-01T08:14:03;98266.38;;;20.88;35.49
72024;BME280;59889;50.700;5.440;2023-04-01T08:16:26;98270.33;;;20.44;35.91
72024;BME280;59889;50.700;5.440;2023-04-01T08:18:55;98277.48;;;20.41;36.03
72024;BME280;59889;50.700;5.440;2023-04-01T08:21:15;98276.91;;;20.77;36.01
72024;BME280;59889;50.700;5.440;2023-04-01T08:23:40;98281.55;;;21.03;36.01
72024;BME280;59889;50.700;5.440;2023-04-01T08:26:08;98282.35;;;20.81;36.01
72024;BME280;59889;50.700;5.440;2023-04-01T08:28:32;98285.80;;;20.66;36.32
72024;BME280;59889;50.700;5.440;2023-04-01T08:30:57;98286.67;;;20.64;36.40
72024;BME280;59889;50.700;5.440;2023-04-01T08:33:22;98289.08;;;20.75;36.27
72024;BME280;59889;50.700;5.440;2023-04-01T08:35:47;98292.38;;;20.74;36.01
72024;BME280;59889;50.700;5.440;2023-04-01T08:38:13;98292.79;;;20.85;36.13
72024;BME280;59889;50.700;5.440;2023-04-01T08:40:54;98289.30;;;20.68;36.35
72024;BME280;59889;50.700;5.440;2023-04-01T08:43:09;98297.00;;;20.42;36.39
72024;BME280;59889;50.700;5.440;2023-04-01T08:48:08;98297.91;;;20.51;36.25
72024;BME280;59889;50.700;5.440;2023-04-01T08:50:26;98303.51;;;20.88;36.11
72024;BME280;59889;50.700;5.440;2023-04-01T08:52:44;98302.65;;;21.05;36.06
72024;BME280;59889;50.700;5.440;2023-04-01T08:55:20;98308.96;;;20.83;36.35
72024;BME280;59889;50.700;5.440;2023-04-01T08:57:38;98310.86;;;20.82;36.34
72024;BME280;59889;50.700;5.440;2023-04-01T08:59:58;98316.88;;;20.77;36.48
72024;BME280;59889;50.700;5.440;2023-04-01T09:02:30;98313.03;;;21.00;36.56
72024;BME280;59889;50.700;5.440;2023-04-01T09:07:21;98318.32;;;20.74;36.59
72024;BME280;59889;50.700;5.440;2023-04-01T09:09:53;98318.77;;;20.73;36.63
72024;BME280;59889;50.700;5.440;2023-04-01T09:14:34;98324.14;;;20.60;36.45
72024;BME280;59889;50.700;5.440;2023-04-01T09:17:01;98327.40;;;20.87;36.36
72024;BME280;59889;50.700;5.440;2023-04-01T09:19:21;98328.65;;;20.94;36.23
72024;BME280;59889;50.700;5.440;2023-04-01T09:21:49;98329.84;;;20.76;36.45
72024;BME280;59889;50.700;5.440;2023-04-01T09:24:19;98334.29;;;21.04;36.10
72024;BME280;59889;50.700;5.440;2023-04-01T09:26:46;98333.23;;;20.79;36.18
72024;BME280;59889;50.700;5.440;2023-04-01T09:29:02;98337.60;;;20.64;36.44
72024;BME280;59889;50.700;5.440;2023-04-01T09:31:30;98340.55;;;20.92;36.50
72024;BME280;59889;50.700;5.440;2023-04-01T09:34:03;98341.01;;;20.83;36.66
72024;BME280;59889;50.700;5.440;2023-04-01T09:36:20;98346.26;;;20.93;36.54
72024;BME280;59889;50.700;5.440;2023-04-01T09:38:46;98347.58;;;20.52;36.73
72024;BME280;59889;50.700;5.440;2023-04-01T09:41:06;98351.16;;;20.84;36.61
72024;BME280;59889;50.700;5.440;2023-04-01T09:43:27;98354.24;;;20.79;36.64
72024;BME280;59889;50.700;5.440;2023-04-01T09:46:00;98357.40;;;20.77;36.65
72024;BME280;59889;50.700;5.440;2023-04-01T09:48:26;98359.56;;;20.63;36.48
72024;BME280;59889;50.700;5.440;2023-04-01T09:50:48;98363.07;;;20.60;36.54
72024;BME280;59889;50.700;5.440;2023-04-01T09:53:24;98368.85;;;20.54;36.59
72024;BME280;59889;50.700;5.440;2023-04-01T09:58:14;98372.21;;;20.69;36.33
72024;BME280;59889;50.700;5.440;2023-04-01T10:00:36;98377.85;;;21.12;36.09
72024;BME280;59889;50.700;5.440;2023-04-01T10:05:34;98377.82;;;20.84;36.40
72024;BME280;59889;50.700;5.440;2023-04-01T10:17:31;98390.54;;;20.92;36.25
72024;BME280;59889;50.700;5.440;2023-04-01T10:19:56;98392.67;;;20.84;36.34
72024;BME280;59889;50.700;5.440;2023-04-01T10:22:21;98393.38;;;20.91;36.26
72024;BME280;59889;50.700;5.440;2023-04-01T10:24:45;98393.43;;;20.65;36.32
72024;BME280;59889;50.700;5.440;2023-04-01T10:27:12;98400.79;;;20.93;36.24
72024;BME280;59889;50.700;5.440;2023-04-01T10:29:38;98399.69;;;20.94;36.21
72024;BME280;59889;50.700;5.440;2023-04-01T10:34:32;98405.36;;;21.18;35.87
72024;BME280;59889;50.700;5.440;2023-04-01T10:36:46;98398.65;;;20.95;36.18
72024;BME280;59889;50.700;5.440;2023-04-01T10:41:41;98400.53;;;21.00;36.20
72024;BME280;59889;50.700;5.440;2023-04-01T10:46:33;98406.29;;;21.16;35.99
72024;BME280;59889;50.700;5.440;2023-04-01T10:48:57;98409.00;;;20.97;36.24
72024;BME280;59889;50.700;5.440;2023-04-01T10:51:17;98411.60;;;20.80;36.44
72024;BME280;59889;50.700;5.440;2023-04-01T10:53:38;98412.75;;;21.02;36.19
72024;BME280;59889;50.700;5.440;2023-04-01T10:56:13;98414.64;;;20.81;36.46
72024;BME280;59889;50.700;5.440;2023-04-01T10:58:38;98409.86;;;20.91;36.29
72024;BME280;59889;50.700;5.440;2023-04-01T11:01:06;98412.71;;;21.20;35.92
72024;BME280;59889;50.700;5.440;2023-04-01T11:13:13;98421.26;;;20.83;36.19
72024;BME280;59889;50.700;5.440;2023-04-01T11:15:31;98419.47;;;21.22;36.02
72024;BME280;59889;50.700;5.440;2023-04-01T11:20:16;98419.37;;;21.21;36.06
72024;BME280;59889;50.700;5.440;2023-04-01T11:22:46;98423.18;;;21.26;35.99
72024;BME280;59889;50.700;5.440;2023-04-01T11:25:16;98417.29;;;21.01;36.28
72024;BME280;59889;50.700;5.440;2023-04-01T11:27:35;98425.00;;;21.15;36.08
72024;BME280;59889;50.700;5.440;2023-04-01T11:29:57;98428.18;;;21.05;36.18
72024;BME280;59889;50.700;5.440;2023-04-01T11:32:24;98429.62;;;21.11;36.08
72024;BME280;59889;50.700;5.440;2023-04-01T11:34:53;98432.37;;;20.92;36.08
72024;BME280;59889;50.700;5.440;2023-04-01T11:37:12;98435.97;;;21.18;36.05
72024;BME280;59889;50.700;5.440;2023-04-01T11:39:34;98437.51;;;21.15;36.07
72024;BME280;59889;50.700;5.440;2023-04-01T11:42:03;98436.91;;;21.15;36.10
72024;BME280;59889;50.700;5.440;2023-04-01T11:44:20;98443.33;;;21.53;35.99
72024;BME280;59889;50.700;5.440;2023-04-01T11:46:54;98444.67;;;20.94;36.11
72024;BME280;59889;50.700;5.440;2023-04-01T11:49:23;98445.00;;;21.08;36.27
72024;BME280;59889;50.700;5.440;2023-04-01T11:51:51;98452.34;;;21.22;36.09
72024;BME280;59889;50.700;5.440;2023-04-01T11:54:04;98449.93;;;21.14;35.80
72024;BME280;59889;50.700;5.440;2023-04-01T11:56:44;98454.79;;;21.16;35.81
72024;BME280;59889;50.700;5.440;2023-04-01T11:59:02;98458.45;;;20.91;36.12
72024;BME280;59889;50.700;5.440;2023-04-01T12:01:22;98462.27;;;21.15;35.80
72024;BME280;59889;50.700;5.440;2023-04-01T12:03:49;98466.18;;;21.50;35.64
72024;BME280;59889;50.700;5.440;2023-04-01T12:06:08;98466.14;;;21.42;35.78
72024;BME280;59889;50.700;5.440;2023-04-01T12:08:37;98470.34;;;21.37;35.82
72024;BME280;59889;50.700;5.440;2023-04-01T12:10:58;98475.07;;;21.44;35.75
72024;BME280;59889;50.700;5.440;2023-04-01T12:13:30;98478.12;;;21.19;36.15
72024;BME280;59889;50.700;5.440;2023-04-01T12:15:56;98489.63;;;21.06;36.34
72024;BME280;59889;50.700;5.440;2023-04-01T12:18:15;98481.77;;;20.68;35.89
72024;BME280;59889;50.700;5.440;2023-04-01T12:20:43;98483.86;;;21.07;35.85
72024;BME280;59889;50.700;5.440;2023-04-01T12:23:09;98483.99;;;20.93;35.92
72024;BME280;59889;50.700;5.440;2023-04-01T12:27:58;98493.44;;;21.18;35.91
72024;BME280;59889;50.700;5.440;2023-04-01T12:30:24;98493.19;;;21.11;36.06
72024;BME280;59889;50.700;5.440;2023-04-01T12:32:44;98500.59;;;21.06;35.82
72024;BME280;59889;50.700;5.440;2023-04-01T12:35:13;98503.22;;;21.23;35.90
72024;BME280;59889;50.700;5.440;2023-04-01T12:37:37;98504.25;;;21.03;35.88
72024;BME280;59889;50.700;5.440;2023-04-01T12:40:09;98503.81;;;21.10;35.78
72024;BME280;59889;50.700;5.440;2023-04-01T12:42:32;98505.80;;;21.19;35.71
72024;BME280;59889;50.700;5.440;2023-04-01T12:44:55;98509.40;;;21.52;35.53
72024;BME280;59889;50.700;5.440;2023-04-01T12:47:20;98511.13;;;21.25;35.84
72024;BME280;59889;50.700;5.440;2023-04-01T12:49:51;98516.63;;;21.29;35.78
72024;BME280;59889;50.700;5.440;2023-04-01T12:52:07;98514.94;;;21.32;35.76
72024;BME280;59889;50.700;5.440;2023-04-01T12:54:48;98517.51;;;21.18;35.88
72024;BME280;59889;50.700;5.440;2023-04-01T12:57:01;98518.78;;;20.99;35.82
72024;BME280;59889;50.700;5.440;2023-04-01T12:59:26;98520.09;;;21.12;35.95
72024;BME280;59889;50.700;5.440;2023-04-01T13:01:52;98522.09;;;21.28;35.74
72024;BME280;59889;50.700;5.440;2023-04-01T13:06:42;98523.11;;;21.22;35.77
72024;BME280;59889;50.700;5.440;2023-04-01T13:09:03;98525.23;;;20.91;35.86
72024;BME280;59889;50.700;5.440;2023-04-01T13:11:27;98530.59;;;20.95;35.74
72024;BME280;59889;50.700;5.440;2023-04-01T13:13:59;98531.99;;;20.95;35.74
72024;BME280;59889;50.700;5.440;2023-04-01T13:16:14;98531.62;;;21.12;35.82
72024;BME280;59889;50.700;5.440;2023-04-01T13:18:39;98531.07;;;21.21;35.69
72024;BME280;59889;50.700;5.440;2023-04-01T13:21:08;98537.84;;;21.11;35.80
72024;BME280;59889;50.700;5.440;2023-04-01T13:23:34;98541.38;;;21.19;35.67
72024;BME280;59889;50.700;5.440;2023-04-01T13:25:57;98543.25;;;20.89;35.74
72024;BME280;59889;50.700;5.440;2023-04-01T13:28:21;98546.21;;;21.10;35.76
72024;BME280;59889;50.700;5.440;2023-04-01T13:30:48;98547.12;;;20.92;35.71
72024;BME280;59889;50.700;5.440;2023-04-01T13:33:14;98548.54;;;20.88;35.72
72024;BME280;59889;50.700;5.440;2023-04-01T13:35:40;98551.39;;;20.78;35.81